createdAt,value
2023-04-16T00:00:55.441Z,1.80
2023-04-16T00:03:23.994Z,1.42
2023-04-16T00:05:51.949Z,2.03
2023-04-16T00:08:19.521Z,1.85
2023-04-16T00:10:47.258Z,1.80
2023-04-16T00:13:16.403Z,1.60
2023-04-16T00:15:43.946Z,1.70
2023-04-16T00:18:11.567Z,1.60
2023-04-16T00:20:39.358Z,1.48
2023-04-16T00:23:07.247Z,1.58
2023-04-16T00:25:34.818Z,1.95
2023-04-16T00:28:02.592Z,1.80
2023-04-16T00:30:31.602Z,1.50
2023-04-16T00:32:59.803Z,1.55
2023-04-16T00:35:28.284Z,1.50
2023-04-16T00:37:55.870Z,1.45
2023-04-16T00:40:23.624Z,1.75
2023-04-16T00:42:51.530Z,1.40
2023-04-16T00:45:19.137Z,1.50
2023-04-16T00:47:48.440Z,1.92
2023-04-16T00:50:16.166Z,1.42
2023-04-16T00:52:44.359Z,1.33
2023-04-16T00:55:13.633Z,1.13
2023-04-16T00:57:41.248Z,1.27
2023-04-16T01:00:09.954Z,1.52
2023-04-16T01:02:37.894Z,1.52
2023-04-16T01:05:07.809Z,1.30
2023-04-16T01:07:35.369Z,1.30
2023-04-16T01:10:03.456Z,1.35
2023-04-16T01:12:31.172Z,1.42
2023-04-16T01:14:59.175Z,1.20
2023-04-16T01:17:26.927Z,1.70
2023-04-16T01:19:54.572Z,1.27
2023-04-16T01:22:23.464Z,1.88
2023-04-16T01:24:51.087Z,1.63
2023-04-16T01:27:18.646Z,1.40
2023-04-16T01:29:46.263Z,1.52
2023-04-16T01:32:14.148Z,1.70
2023-04-16T01:34:41.968Z,1.63
2023-04-16T01:37:09.562Z,1.60
2023-04-16T01:39:38.651Z,1.70
2023-04-16T01:42:06.284Z,1.48
2023-04-16T01:44:34.010Z,1.47
2023-04-16T01:47:01.737Z,1.40
2023-04-16T01:49:30.242Z,1.73
2023-04-16T01:51:58.093Z,1.65
2023-04-16T01:54:26.080Z,1.50
2023-04-16T01:56:54.976Z,1.80
2023-04-16T01:59:22.692Z,1.70
2023-04-16T02:01:50.535Z,1.63
2023-04-16T02:04:18.381Z,2.00
2023-04-16T02:06:45.938Z,1.80
2023-04-16T02:09:13.504Z,1.97
2023-04-16T02:11:41.281Z,1.63
2023-04-16T02:14:10.242Z,1.73
2023-04-16T02:16:37.847Z,1.73
2023-04-16T02:19:05.734Z,1.85
2023-04-16T02:21:33.299Z,1.60
2023-04-16T02:24:01.184Z,1.75
2023-04-16T02:26:29.840Z,2.03
2023-04-16T02:28:57.421Z,1.77
2023-04-16T02:31:26.737Z,1.45
2023-04-16T02:33:54.320Z,1.50
2023-04-16T02:36:22.087Z,1.58
2023-04-16T02:38:49.694Z,1.95
2023-04-16T02:41:17.650Z,2.03
2023-04-16T02:43:45.394Z,1.80
2023-04-16T02:46:13.050Z,1.90
2023-04-16T02:48:42.875Z,1.55
2023-04-16T02:51:10.486Z,1.80
2023-04-16T02:53:38.146Z,1.85
2023-04-16T02:56:06.489Z,1.50
2023-04-16T02:58:34.122Z,1.60
2023-04-16T03:01:01.837Z,1.75
2023-04-16T03:07:14.613Z,1.58
2023-04-16T03:09:42.289Z,1.88
2023-04-16T03:12:09.954Z,1.83
2023-04-16T03:14:37.489Z,1.90
2023-04-16T03:17:05.218Z,1.73
2023-04-16T03:19:32.749Z,1.75
2023-04-16T03:22:00.404Z,1.92
2023-04-16T03:24:29.722Z,1.93
2023-04-16T03:26:58.393Z,1.70
2023-04-16T03:29:26.796Z,1.50
2023-04-16T03:31:54.523Z,1.70
2023-04-16T03:34:22.137Z,2.10
2023-04-16T03:36:49.623Z,1.70
2023-04-16T03:39:17.282Z,1.85
2023-04-16T03:41:46.340Z,1.80
2023-04-16T03:44:13.898Z,2.00
2023-04-16T03:46:41.963Z,1.77
2023-04-16T03:49:09.756Z,2.00
2023-04-16T03:51:37.469Z,1.70
2023-04-16T03:54:05.352Z,1.90
2023-04-16T03:56:35.503Z,1.92
2023-04-16T03:59:04.354Z,1.67
2023-04-16T04:01:31.916Z,1.67
2023-04-16T04:04:00.035Z,2.60
2023-04-16T04:06:27.996Z,2.30
2023-04-16T04:08:55.520Z,2.50
2023-04-16T04:11:23.451Z,1.88
2023-04-16T04:13:51.023Z,1.67
2023-04-16T04:16:19.912Z,2.20
2023-04-16T04:18:47.584Z,2.13
2023-04-16T04:21:15.311Z,1.95
2023-04-16T04:23:43.674Z,1.85
2023-04-16T04:26:11.498Z,1.80
2023-04-16T04:28:39.110Z,2.22
2023-04-16T04:31:06.827Z,2.72
2023-04-16T04:33:35.945Z,2.20
2023-04-16T04:36:03.756Z,1.83
2023-04-16T04:38:31.649Z,2.50
2023-04-16T04:40:59.905Z,1.83
2023-04-16T04:43:28.786Z,1.90
2023-04-16T04:45:56.860Z,1.80
2023-04-16T04:48:26.770Z,1.60
2023-04-16T04:50:55.789Z,1.50
2023-04-16T04:53:23.523Z,1.83
2023-04-16T04:55:53.988Z,1.80
2023-04-16T04:58:24.901Z,1.65
2023-04-16T05:00:52.670Z,2.05
2023-04-16T05:03:21.549Z,1.70
2023-04-16T05:05:49.522Z,1.60
2023-04-16T05:08:18.372Z,1.80
2023-04-16T05:10:46.057Z,2.10
2023-04-16T05:13:13.600Z,1.98
2023-04-16T05:15:41.232Z,1.83
2023-04-16T05:18:08.930Z,2.35
2023-04-16T05:20:37.945Z,5.93
2023-04-16T05:23:05.483Z,5.28
2023-04-16T05:25:34.839Z,3.58
2023-04-16T05:28:02.409Z,2.73
2023-04-16T05:30:30.295Z,2.30
2023-04-16T05:32:57.903Z,2.50
2023-04-16T05:35:26.671Z,2.13
2023-04-16T05:37:54.339Z,2.38
2023-04-16T05:40:22.106Z,2.93
2023-04-16T05:42:50.985Z,3.10
2023-04-16T05:45:18.506Z,2.90
2023-04-16T05:47:46.285Z,2.33
2023-04-16T05:50:14.104Z,2.95
2023-04-16T05:52:41.660Z,2.30
2023-04-16T05:55:10.334Z,2.40
2023-04-16T05:57:37.816Z,3.15
2023-04-16T06:00:08.673Z,3.90
2023-04-16T06:02:36.382Z,3.33
2023-04-16T06:05:04.128Z,3.30
2023-04-16T06:07:31.849Z,3.30
2023-04-16T06:09:59.374Z,2.80
2023-04-16T06:12:27.087Z,2.60
2023-04-16T06:14:54.973Z,3.00
2023-04-16T06:17:24.140Z,2.67
2023-04-16T06:19:51.935Z,3.10
2023-04-16T06:22:20.112Z,2.50
2023-04-16T06:24:47.900Z,2.50
2023-04-16T06:27:15.466Z,3.20
2023-04-16T06:29:43.375Z,3.27
2023-04-16T06:32:11.102Z,2.95
2023-04-16T06:34:40.614Z,3.20
2023-04-16T06:37:10.496Z,4.00
2023-04-16T06:39:38.358Z,4.43
2023-04-16T06:42:06.182Z,3.97
2023-04-16T06:44:34.156Z,3.67
2023-04-16T06:47:01.723Z,3.13
2023-04-16T06:49:29.490Z,3.47
2023-04-16T06:51:58.764Z,3.33
2023-04-16T06:54:26.437Z,3.33
2023-04-16T06:56:53.991Z,3.60
2023-04-16T06:59:21.521Z,3.67
2023-04-16T07:01:49.359Z,3.10
2023-04-16T07:04:17.036Z,2.90
2023-04-16T07:06:44.624Z,3.57
2023-04-16T07:09:13.839Z,3.28
2023-04-16T07:11:41.970Z,2.88
2023-04-16T07:14:09.505Z,2.50
2023-04-16T07:16:38.090Z,2.55
2023-04-16T07:19:06.090Z,2.87
2023-04-16T07:21:34.184Z,2.78
2023-04-16T07:24:01.846Z,1.90
2023-04-16T07:26:30.897Z,2.30
2023-04-16T07:28:58.593Z,2.17
2023-04-16T07:31:26.192Z,2.07
2023-04-16T07:33:53.929Z,2.30
2023-04-16T07:36:21.849Z,2.00
2023-04-16T07:38:49.569Z,2.10
2023-04-16T07:41:17.324Z,1.90
2023-04-16T07:43:46.256Z,1.97
2023-04-16T07:46:13.853Z,2.20
2023-04-16T07:48:41.571Z,1.77
2023-04-16T07:51:09.093Z,1.75
2023-04-16T07:53:36.834Z,1.73
2023-04-16T07:56:04.775Z,2.00
2023-04-16T07:58:32.513Z,1.90
2023-04-16T08:01:01.590Z,2.10
2023-04-16T08:03:29.411Z,1.80
2023-04-16T08:05:57.243Z,1.77
2023-04-16T08:08:24.818Z,1.70
2023-04-16T08:10:55.778Z,1.42
2023-04-16T08:13:24.029Z,1.98
2023-04-16T08:15:51.649Z,2.03
2023-04-16T08:18:20.846Z,3.78
2023-04-16T08:20:48.780Z,2.77
2023-04-16T08:23:16.534Z,2.20
2023-04-16T08:25:44.052Z,2.05
2023-04-16T08:28:11.736Z,1.58
2023-04-16T08:30:39.620Z,1.70
2023-04-16T08:33:07.485Z,2.27
2023-04-16T08:35:36.459Z,1.50
2023-04-16T08:38:04.849Z,7.50
2023-04-16T08:40:33.017Z,6.20
2023-04-16T08:43:03.832Z,3.13
2023-04-16T08:45:34.344Z,2.83
2023-04-16T08:48:02.993Z,2.80
2023-04-16T08:50:31.220Z,1.98
2023-04-16T08:53:04.617Z,2.17
2023-04-16T08:55:37.240Z,2.05
2023-04-16T08:58:10.716Z,1.90
2023-04-16T09:00:40.976Z,1.70
2023-04-16T09:03:09.885Z,1.80
2023-04-16T09:05:39.080Z,1.73
2023-04-16T09:08:08.290Z,2.35
2023-04-16T09:10:36.140Z,2.10
2023-04-16T09:13:03.721Z,2.03
2023-04-16T09:15:33.370Z,1.58
2023-04-16T09:18:02.375Z,1.58
2023-04-16T09:20:29.916Z,1.35
2023-04-16T09:22:58.090Z,1.37
2023-04-16T09:25:27.777Z,1.00
2023-04-16T09:27:55.552Z,1.30
2023-04-16T09:30:24.348Z,1.20
2023-04-16T09:32:53.066Z,1.20
2023-04-16T09:35:22.706Z,1.13
2023-04-16T09:37:58.115Z,1.50
2023-04-16T09:40:30.249Z,1.52
2023-04-16T09:43:00.737Z,1.55
2023-04-16T09:45:32.579Z,1.33
2023-04-16T09:48:04.940Z,1.40
2023-04-16T09:50:32.636Z,1.40
2023-04-16T09:53:03.657Z,1.20
2023-04-16T09:55:33.776Z,1.30
2023-04-16T09:58:02.432Z,1.20
2023-04-16T10:00:30.942Z,1.10
2023-04-16T10:03:05.820Z,1.20
2023-04-16T10:05:33.441Z,0.80
2023-04-16T10:08:01.986Z,0.98
2023-04-16T10:10:30.070Z,1.05
2023-04-16T10:12:59.089Z,1.07
2023-04-16T10:15:26.948Z,1.10
2023-04-16T10:17:55.107Z,0.90
2023-04-16T10:20:24.922Z,0.77
2023-04-16T10:22:53.098Z,0.90
2023-04-16T10:25:21.501Z,0.80
2023-04-16T10:27:49.479Z,0.80
2023-04-16T10:30:19.452Z,0.80
2023-04-16T10:32:47.397Z,0.50
2023-04-16T10:35:17.543Z,0.90
2023-04-16T10:37:45.530Z,0.70
2023-04-16T10:40:24.799Z,0.70
2023-04-16T10:42:59.371Z,0.77
2023-04-16T10:45:31.784Z,0.57
2023-04-16T10:47:59.533Z,0.70
2023-04-16T10:50:35.653Z,0.50
2023-04-16T10:53:19.407Z,0.70
2023-04-16T10:55:58.472Z,0.50
2023-04-16T10:58:29.797Z,0.65
2023-04-16T11:01:01.624Z,1.23
2023-04-16T11:03:32.723Z,1.20
2023-04-16T11:06:14.530Z,2.20
2023-04-16T11:08:54.038Z,3.35
2023-04-16T11:11:23.455Z,2.85
2023-04-16T11:13:55.747Z,2.38
2023-04-16T11:16:26.621Z,1.77
2023-04-16T11:18:56.822Z,1.25
2023-04-16T11:21:25.339Z,1.25
2023-04-16T11:23:54.456Z,1.38
2023-04-16T11:26:24.864Z,1.20
2023-04-16T11:28:52.796Z,1.27
2023-04-16T11:31:20.716Z,1.30
2023-04-16T11:33:49.721Z,1.50
2023-04-16T11:36:17.359Z,1.30
2023-04-16T11:38:47.330Z,0.90
2023-04-16T11:41:21.810Z,2.00
2023-04-16T11:43:50.117Z,1.27
2023-04-16T11:46:27.072Z,2.10
2023-04-16T11:48:57.024Z,2.65
2023-04-16T11:51:24.750Z,2.90
2023-04-16T11:53:53.457Z,2.10
2023-04-16T11:56:28.730Z,2.10
2023-04-16T11:59:13.338Z,1.80
2023-04-16T12:01:42.918Z,1.60
2023-04-16T12:04:18.908Z,1.10
2023-04-16T12:07:05.828Z,1.00
2023-04-16T12:09:36.092Z,1.20
2023-04-16T12:12:06.512Z,1.50
2023-04-16T12:14:34.279Z,6.07
2023-04-16T12:17:21.103Z,3.63
2023-04-16T12:19:57.321Z,4.60
2023-04-16T12:22:29.528Z,1.98
2023-04-16T12:24:59.788Z,2.97
2023-04-16T12:27:28.550Z,7.45
2023-04-16T12:30:07.497Z,1.02
2023-04-16T12:32:35.115Z,0.50
2023-04-16T12:35:04.324Z,2.63
2023-04-16T12:37:32.524Z,1.90
2023-04-16T12:40:00.678Z,2.70
2023-04-16T12:42:33.436Z,1.70
2023-04-16T12:45:01.283Z,2.90
2023-04-16T12:47:28.828Z,1.48
2023-04-16T12:49:57.299Z,3.97
2023-04-16T12:52:26.466Z,2.67
2023-04-16T12:54:54.048Z,1.85
2023-04-16T12:57:21.778Z,1.80
2023-04-16T12:59:49.359Z,2.63
2023-04-16T13:02:17.381Z,1.88
2023-04-16T13:04:45.303Z,2.00
2023-04-16T13:07:13.154Z,0.50
2023-04-16T13:09:42.221Z,1.73
2023-04-16T13:12:09.819Z,1.48
2023-04-16T13:14:39.137Z,1.88
2023-04-16T13:17:06.670Z,1.60
2023-04-16T13:19:34.620Z,0.70
2023-04-16T13:22:02.647Z,1.20
2023-04-16T13:24:31.470Z,0.73
2023-04-16T13:27:00.543Z,0.80
2023-04-16T13:29:28.597Z,0.60
2023-04-16T13:31:56.254Z,0.82
2023-04-16T13:34:23.812Z,0.60
2023-04-16T13:36:51.568Z,0.75
2023-04-16T13:39:19.492Z,0.65
2023-04-16T13:41:48.874Z,0.93
2023-04-16T13:44:18.065Z,1.45
2023-04-16T13:46:47.700Z,1.70
2023-04-16T13:49:16.322Z,0.60
2023-04-16T13:51:45.080Z,1.35
2023-04-16T13:54:12.605Z,0.98
2023-04-16T13:56:40.966Z,1.25
2023-04-16T13:59:08.959Z,1.20
2023-04-16T14:01:38.277Z,0.90
2023-04-16T14:04:07.147Z,0.80
2023-04-16T14:06:35.439Z,0.60
2023-04-16T14:09:03.020Z,1.92
2023-04-16T14:11:31.016Z,1.63
2023-04-16T14:13:58.703Z,0.75
2023-04-16T14:16:27.272Z,0.65
2023-04-16T14:18:56.645Z,0.70
2023-04-16T14:21:24.160Z,0.85
2023-04-16T14:23:51.975Z,1.40
2023-04-16T14:26:19.559Z,0.50
2023-04-16T14:28:47.338Z,0.60
2023-04-16T14:31:15.124Z,0.57
2023-04-16T14:33:42.914Z,0.50
2023-04-16T14:36:11.839Z,0.43
2023-04-16T14:38:39.768Z,0.40
2023-04-16T14:41:07.361Z,0.52
2023-04-16T14:43:35.955Z,0.50
2023-04-16T14:46:06.412Z,1.05
2023-04-16T14:48:34.070Z,0.60
2023-04-16T14:51:01.781Z,1.30
2023-04-16T14:53:30.787Z,5.72
2023-04-16T14:55:59.095Z,0.47
2023-04-16T14:58:27.091Z,4.18
2023-04-16T15:00:54.812Z,3.40
2023-04-16T15:03:23.272Z,0.60
2023-04-16T15:05:55.907Z,0.70
2023-04-16T15:08:24.498Z,0.95
2023-04-16T15:10:53.453Z,0.63
2023-04-16T15:13:21.075Z,0.30
2023-04-16T15:15:49.121Z,0.55
2023-04-16T15:18:17.345Z,1.00
2023-04-16T15:20:46.027Z,0.70
2023-04-16T15:23:13.754Z,0.40
2023-04-16T15:25:41.551Z,0.43
2023-04-16T15:28:10.705Z,0.50
2023-04-16T15:30:39.523Z,0.40
2023-04-16T15:33:07.411Z,1.38
2023-04-16T15:35:36.742Z,0.75
2023-04-16T15:38:04.254Z,0.70
2023-04-16T15:40:31.996Z,0.90
2023-04-16T15:42:59.585Z,0.68
2023-04-16T15:45:28.529Z,1.25
2023-04-16T15:47:56.644Z,0.60
2023-04-16T15:50:24.294Z,0.40
2023-04-16T15:52:51.960Z,1.33
2023-04-16T15:55:20.844Z,1.48
2023-04-16T15:57:48.389Z,1.63
2023-04-16T16:00:17.082Z,0.98
2023-04-16T16:02:48.001Z,1.17
2023-04-16T16:05:17.048Z,1.33
2023-04-16T16:07:44.664Z,0.73
2023-04-16T16:10:14.188Z,0.80
2023-04-16T16:12:42.199Z,0.70
2023-04-16T16:15:11.026Z,0.90
2023-04-16T16:17:39.097Z,0.77
2023-04-16T16:20:10.295Z,0.73
2023-04-16T16:22:39.170Z,0.80
2023-04-16T16:25:08.292Z,0.68
2023-04-16T16:27:36.491Z,0.47
2023-04-16T16:31:00.144Z,0.80
2023-04-16T16:33:28.834Z,1.48
2023-04-16T16:35:57.933Z,1.50
2023-04-16T16:38:26.080Z,0.57
2023-04-16T16:40:53.758Z,0.40
2023-04-16T16:43:21.577Z,1.08
2023-04-16T16:45:49.652Z,0.77
2023-04-16T16:48:17.658Z,0.65
2023-04-16T16:50:45.269Z,2.80
2023-04-16T16:53:14.274Z,1.20
2023-04-16T16:55:42.370Z,4.05
2023-04-16T16:58:10.143Z,0.90
2023-04-16T17:00:38.082Z,1.15
2023-04-16T17:03:05.875Z,3.55
2023-04-16T17:05:34.071Z,1.60
2023-04-16T17:08:01.802Z,1.02
2023-04-16T17:10:30.804Z,0.90
2023-04-16T17:12:58.782Z,0.40
2023-04-16T17:15:26.510Z,0.75
2023-04-16T17:17:54.109Z,0.60
2023-04-16T17:20:22.480Z,1.05
2023-04-16T17:22:51.281Z,1.92
2023-04-16T17:25:19.575Z,1.83
2023-04-16T17:27:48.612Z,2.40
2023-04-16T17:30:16.878Z,2.60
2023-04-16T17:32:44.845Z,3.08
2023-04-16T17:35:14.067Z,3.28
2023-04-16T17:37:42.018Z,3.28
2023-04-16T17:40:10.845Z,3.17
2023-04-16T17:42:38.501Z,2.90
2023-04-16T17:45:09.416Z,2.30
2023-04-16T17:47:37.944Z,1.98
2023-04-16T17:50:06.400Z,1.55
2023-04-16T17:52:34.082Z,1.63
2023-04-16T17:55:02.009Z,1.80
2023-04-16T17:57:29.872Z,2.50
2023-04-16T17:59:58.131Z,5.32
2023-04-16T18:02:27.529Z,1.83
2023-04-16T18:04:55.627Z,0.80
2023-04-16T18:07:23.699Z,1.10
2023-04-16T18:09:51.574Z,0.73
2023-04-16T18:12:19.159Z,1.15
2023-04-16T18:14:47.175Z,0.45
2023-04-16T18:17:15.529Z,0.90
2023-04-16T18:19:44.883Z,0.90
2023-04-16T18:22:13.373Z,0.50
2023-04-16T18:24:41.191Z,1.88
2023-04-16T18:27:09.052Z,0.80
2023-04-16T18:29:39.578Z,0.60
2023-04-16T18:32:11.715Z,0.70
2023-04-16T18:34:40.111Z,0.65
2023-04-16T18:37:09.722Z,0.63
2023-04-16T18:39:37.822Z,0.70
2023-04-16T18:42:06.194Z,0.70
2023-04-16T18:44:34.515Z,0.70
2023-04-16T18:47:02.196Z,0.73
2023-04-16T18:49:30.215Z,0.70
2023-04-16T18:51:58.130Z,0.52
2023-04-16T18:54:27.605Z,0.73
2023-04-16T18:56:57.408Z,0.37
2023-04-16T18:59:26.813Z,0.57
2023-04-16T19:01:54.499Z,1.63
2023-04-16T19:04:22.457Z,1.40
2023-04-16T19:06:50.333Z,1.10
2023-04-16T19:09:18.538Z,1.20
2023-04-16T19:11:50.347Z,1.00
2023-04-16T19:14:18.408Z,1.05
2023-04-16T19:16:46.352Z,1.00
2023-04-16T19:19:14.420Z,1.17
2023-04-16T19:21:43.004Z,1.10
2023-04-16T19:24:11.103Z,0.80
2023-04-16T19:26:39.046Z,0.90
2023-04-16T19:29:08.511Z,1.30
2023-04-16T19:31:36.511Z,1.40
2023-04-16T19:34:04.692Z,0.90
2023-04-16T19:36:32.840Z,0.90
2023-04-16T19:39:00.899Z,0.80
2023-04-16T19:41:28.736Z,1.05
2023-04-16T19:43:56.646Z,1.00
2023-04-16T19:46:25.902Z,0.90
2023-04-16T19:48:54.052Z,0.80
2023-04-16T19:51:21.918Z,0.93
2023-04-16T19:53:49.972Z,1.25
2023-04-16T19:56:18.195Z,0.65
2023-04-16T19:58:46.101Z,1.30
2023-04-16T20:01:13.739Z,0.85
2023-04-16T20:03:43.259Z,0.90
2023-04-16T20:06:11.424Z,0.85
2023-04-16T20:08:39.021Z,0.90
2023-04-16T20:11:08.724Z,1.40
2023-04-16T20:13:37.855Z,0.90
2023-04-16T20:16:09.414Z,1.10
2023-04-16T20:18:41.397Z,0.82
2023-04-16T20:21:11.235Z,1.00
2023-04-16T20:23:39.059Z,0.90
2023-04-16T20:26:07.355Z,1.40
2023-04-16T20:28:35.303Z,1.52
2023-04-16T20:31:03.429Z,1.70
2023-04-16T20:33:31.316Z,1.60
2023-04-16T20:35:59.571Z,1.50
2023-04-16T20:38:32.573Z,1.20
2023-04-16T20:41:10.088Z,1.33
2023-04-16T20:43:40.921Z,1.30
2023-04-16T20:46:09.237Z,1.30
2023-04-16T20:48:37.477Z,1.40
2023-04-16T20:51:07.829Z,1.20
2023-04-16T20:53:38.570Z,1.25
2023-04-16T20:56:09.229Z,1.30
2023-04-16T20:58:37.101Z,2.10
2023-04-16T21:01:06.034Z,1.70
2023-04-16T21:03:34.200Z,1.38
2023-04-16T21:06:03.512Z,1.75
2023-04-16T21:08:31.972Z,1.63
2023-04-16T21:11:01.356Z,1.58
2023-04-16T21:13:29.259Z,1.20
2023-04-16T21:15:57.459Z,1.17
2023-04-16T21:18:25.494Z,1.60
2023-04-16T21:20:53.397Z,1.50
2023-04-16T21:23:21.444Z,1.30
2023-04-16T21:25:49.310Z,1.43
2023-04-16T21:28:18.721Z,1.45
2023-04-16T21:30:46.532Z,1.52
2023-04-16T21:33:16.125Z,1.67
2023-04-16T21:35:44.191Z,2.03
2023-04-16T21:38:12.137Z,1.67
2023-04-16T21:40:40.681Z,2.00
2023-04-16T21:43:08.710Z,1.83
2023-04-16T21:45:37.946Z,2.20
2023-04-16T21:48:05.942Z,1.90
2023-04-16T21:50:33.949Z,1.93
2023-04-16T21:53:04.489Z,1.80
2023-04-16T21:55:32.837Z,1.60
2023-04-16T21:58:01.071Z,1.63
2023-04-16T22:00:28.975Z,1.58
2023-04-16T22:03:00.585Z,1.53
2023-04-16T22:05:28.988Z,1.50
2023-04-16T22:07:57.353Z,1.70
2023-04-16T22:10:25.178Z,1.48
2023-04-16T22:12:53.910Z,1.63
2023-04-16T22:15:22.426Z,1.50
2023-04-16T22:17:50.823Z,1.60
2023-04-16T22:20:20.152Z,1.40
2023-04-16T22:22:48.007Z,1.42
2023-04-16T22:25:16.532Z,1.70
2023-04-16T22:27:44.352Z,1.70
2023-04-16T22:30:13.236Z,1.30
2023-04-16T22:32:41.359Z,1.40
2023-04-16T22:35:10.378Z,1.77
2023-04-16T22:37:39.609Z,1.70
2023-04-16T22:40:10.952Z,1.50
2023-04-16T22:42:39.263Z,1.77
2023-04-16T22:45:08.885Z,1.60
2023-04-16T22:47:36.756Z,1.60
2023-04-16T22:50:05.250Z,1.52
2023-04-16T22:52:33.489Z,1.40
2023-04-16T22:55:02.940Z,1.20
2023-04-16T22:57:30.728Z,1.20
2023-04-16T22:59:58.822Z,1.50
2023-04-16T23:02:26.548Z,1.20
2023-04-16T23:04:54.420Z,1.27
2023-04-16T23:07:22.583Z,1.30
2023-04-16T23:09:50.936Z,1.45
2023-04-16T23:12:20.131Z,0.93
2023-04-16T23:14:48.502Z,1.50
2023-04-16T23:17:16.163Z,1.43
2023-04-16T23:19:44.010Z,1.17
2023-04-16T23:22:12.419Z,1.50
2023-04-16T23:24:40.293Z,1.20
2023-04-16T23:27:08.103Z,1.10
2023-04-16T23:29:37.309Z,1.30
2023-04-16T23:32:05.507Z,1.33
2023-04-16T23:34:33.520Z,1.30
2023-04-16T23:37:01.624Z,1.25
2023-04-16T23:39:29.246Z,1.20
2023-04-16T23:41:57.669Z,1.10
2023-04-16T23:44:25.806Z,0.90
2023-04-16T23:46:55.292Z,1.38
2023-04-16T23:49:23.206Z,1.08
2023-04-16T23:51:51.247Z,1.25
2023-04-16T23:54:18.873Z,1.50
2023-04-16T23:56:46.869Z,1.13
2023-04-16T23:59:14.738Z,1.50
